Time;durP1;ratioP1;P1;durP2;ratioP2;P2;SDS_P1;SDS_P2;PMS_P1;PMS_P2;Temp;Humidity;BMP_temperature;BMP_pressure;BME280_temperature;BME280_humidity;BME280_pressure;Samples;Min_cycle;Max_cycle;Signal;HPM_P1;HPM_P2
2022/03/15 00:01:24;;;;;;;22.17;12.33;;;2.80;60.80;;;2.46;48.85;96652.84;4941576;29;21002;-58
2022/03/15 00:03:51;;;;;;;20.07;12.67;;;2.70;61.00;;;2.43;47.95;96663.31;4942901;29;20497;-58
2022/03/15 00:06:18;;;;;;;21.20;11.67;;;2.70;60.60;;;2.41;47.94;96659.06;4931264;29;20516;-57
2022/03/15 00:08:46;;;;;;;22.20;13.10;;;2.70;60.70;;;2.39;48.28;96661.69;4928058;29;20531;-57
2022/03/15 00:11:13;;;;;;;21.10;12.90;;;2.70;61.20;;;2.37;48.55;96660.91;4940114;29;20464;-58
2022/03/15 00:13:41;;;;;;;19.03;12.30;;;2.60;61.90;;;2.35;47.97;96662.66;4940348;28;20484;-56
2022/03/15 00:16:09;;;;;;;24.50;14.43;;;2.60;61.40;;;2.33;48.76;96656.69;4940448;29;21027;-58
2022/03/15 00:18:38;;;;;;;26.73;14.33;;;2.60;61.20;;;2.31;48.59;96655.88;4932632;29;20480;-57
2022/03/15 00:21:09;;;;;;;22.30;14.07;;;2.60;62.00;;;2.31;49.30;96651.53;4937886;28;20465;-57
2022/03/15 00:23:36;;;;;;;25.63;14.73;;;2.60;61.70;;;2.30;49.26;96651.59;4937361;29;20477;-56
2022/03/15 00:26:03;;;;;;;32.03;16.47;;;2.60;62.20;;;2.28;49.00;96650.78;4939226;29;20452;-57
2022/03/15 00:28:31;;;;;;;29.30;17.13;;;2.50;61.80;;;2.25;48.85;96650.88;4933848;29;20919;-58
2022/03/15 00:30:58;;;;;;;31.70;16.70;;;2.50;61.80;;;2.21;49.42;96650.09;4938127;29;20920;-57
2022/03/15 00:33:26;;;;;;;39.00;18.07;;;2.50;62.10;;;2.19;48.62;96643.28;4935471;29;21061;-56
2022/03/15 00:35:55;;;;;;;31.80;17.50;;;2.40;62.00;;;2.17;49.74;96642.44;4945240;28;20531;-58
2022/03/15 00:38:22;;;;;;;32.13;18.63;;;2.40;62.10;;;2.13;48.37;96645.13;4928819;28;21021;-57
2022/03/15 00:40:50;;;;;;;31.20;18.43;;;2.40;61.90;;;2.10;48.37;96650.41;4935693;28;20492;-57
2022/03/15 00:43:17;;;;;;;33.37;16.83;;;2.30;61.90;;;2.05;50.09;96644.50;4933751;29;20485;-58
2022/03/15 00:45:44;;;;;;;33.00;16.97;;;2.40;62.90;;;2.02;50.02;96639.41;4941531;29;20457;-57
2022/03/15 00:48:13;;;;;;;34.73;18.17;;;2.30;63.30;;;1.99;50.02;96642.09;4935516;28;20538;-56
2022/03/15 00:50:41;;;;;;;37.07;17.17;;;2.20;62.80;;;1.94;49.87;96637.03;4934742;29;20457;-56
2022/03/15 00:53:10;;;;;;;35.17;16.17;;;2.20;63.40;;;1.91;48.92;96633.69;4937982;29;20477;-56
2022/03/15 00:55:38;;;;;;;33.83;17.10;;;2.20;63.30;;;1.89;49.98;96630.25;4940065;29;20901;-57
2022/03/15 00:58:06;;;;;;;35.47;18.47;;;2.20;63.80;;;1.87;49.81;96629.47;4932650;29;20466;-57
2022/03/15 01:00:35;;;;;;;36.70;19.90;;;2.20;63.50;;;1.84;49.62;96626.94;4931312;29;20456;-56
2022/03/15 01:03:02;;;;;;;43.40;19.63;;;2.10;64.20;;;1.80;50.17;96623.59;4937980;29;20909;-57
2022/03/15 01:05:29;;;;;;;28.90;18.17;;;2.10;64.40;;;1.77;50.34;96627.13;4936701;29;20464;-58
2022/03/15 01:07:57;;;;;;;38.70;17.70;;;2.10;64.10;;;1.76;50.45;96619.38;4939372;29;20591;-56
2022/03/15 01:10:26;;;;;;;35.23;17.07;;;2.00;64.40;;;1.73;50.03;96617.72;4930096;29;20452;-58
2022/03/15 01:12:53;;;;;;;40.33;17.93;;;2.00;64.60;;;1.69;49.46;96621.31;4930557;29;20478;-56
2022/03/15 01:15:24;;;;;;;34.37;17.40;;;2.00;64.60;;;1.67;50.71;96625.66;4940599;28;20547;-58
2022/03/15 01:17:52;;;;;;;32.77;15.23;;;2.00;65.20;;;1.65;51.18;96619.69;4940108;29;21291;-57
2022/03/15 01:20:19;;;;;;;31.87;16.73;;;1.90;65.30;;;1.63;50.08;96616.28;4934648;28;20457;-55
2022/03/15 01:22:46;;;;;;;38.93;17.10;;;1.90;65.50;;;1.62;50.93;96627.53;4929912;29;20504;-57
2022/03/15 01:25:13;;;;;;;39.83;17.50;;;1.90;65.60;;;1.60;50.80;96621.56;4937940;29;20457;-57
2022/03/15 01:27:42;;;;;;;40.60;16.97;;;1.90;66.30;;;1.58;50.17;96626.78;4943102;28;20500;-57
2022/03/15 01:30:10;;;;;;;26.90;14.40;;;1.90;66.30;;;1.58;50.88;96625.91;4937516;29;20468;-56
2022/03/15 01:32:37;;;;;;;29.53;14.73;;;1.90;65.90;;;1.56;50.87;96627.72;4934657;29;20468;-57
2022/03/15 01:35:06;;;;;;;35.53;15.90;;;1.80;65.90;;;1.52;51.30;96624.34;4929933;29;20488;-58
2022/03/15 01:37:33;;;;;;;32.07;14.83;;;1.80;66.10;;;1.51;51.28;96629.59;4935376;29;20510;-57
2022/03/15 01:40:01;;;;;;;29.83;16.87;;;1.80;66.40;;;1.48;51.01;96634.84;4941169;29;20796;-57
2022/03/15 01:42:28;;;;;;;31.07;15.90;;;1.80;67.10;;;1.46;51.25;96639.22;4929881;29;20508;-59
2022/03/15 01:44:57;;;;;;;30.87;17.90;;;1.80;66.40;;;1.45;50.46;96643.56;4937225;29;21005;-54
2022/03/15 01:47:24;;;;;;;34.17;17.57;;;1.70;67.00;;;1.42;51.32;96643.63;4935417;29;20566;-57
2022/03/15 01:49:51;;;;;;;37.27;19.87;;;1.70;67.20;;;1.40;50.75;96648.00;4935668;28;20456;-56
2022/03/15 01:52:19;;;;;;;35.80;19.40;;;1.70;67.30;;;1.38;50.31;96645.47;4929852;29;20567;-55
2022/03/15 01:54:46;;;;;;;38.77;17.97;;;1.70;66.70;;;1.35;51.89;96642.94;4936609;29;20468;-57
2022/03/15 01:57:13;;;;;;;31.63;17.00;;;1.70;67.50;;;1.34;51.62;96649.00;4935465;28;20462;-56
2022/03/15 01:59:41;;;;;;;39.20;18.03;;;1.60;67.50;;;1.31;52.16;96649.09;4942317;28;20980;-58
2022/03/15 02:02:10;;;;;;;35.53;17.43;;;1.60;67.90;;;1.28;50.99;96641.41;4931250;28;20706;-56
2022/03/15 02:04:37;;;;;;;33.87;18.50;;;1.60;68.40;;;1.25;51.77;96634.56;4935117;29;20990;-58
2022/03/15 02:07:06;;;;;;;48.57;20.10;;;1.60;68.00;;;1.23;51.83;96632.91;4936938;29;20840;-56
2022/03/15 02:09:34;;;;;;;35.97;19.60;;;1.50;67.20;;;1.21;50.81;96632.09;4941694;28;20448;-56
2022/03/15 02:12:01;;;;;;;36.27;16.87;;;1.50;67.80;;;1.19;50.97;96637.31;4932729;28;21008;-57
2022/03/15 02:14:29;;;;;;;39.90;19.87;;;1.50;67.30;;;1.17;51.90;96636.50;4933565;28;20460;-56
2022/03/15 02:16:56;;;;;;;34.57;18.40;;;1.50;68.30;;;1.15;51.76;96629.66;4932074;28;20461;-57
2022/03/15 02:19:27;;;;;;;27.87;16.53;;;1.50;68.00;;;1.16;52.03;96628.75;4936361;29;20555;-57
2022/03/15 02:21:57;;;;;;;43.27;16.80;;;1.40;68.20;;;1.14;50.65;96615.84;4935782;29;20472;-57
2022/03/15 02:24:25;;;;;;;36.10;18.67;;;1.40;67.70;;;1.13;51.74;96615.88;4931428;29;20575;-57
2022/03/15 02:26:52;;;;;;;39.70;16.90;;;1.40;68.30;;;1.12;50.89;96616.78;4933395;29;21030;-57
2022/03/15 02:29:20;;;;;;;33.80;17.77;;;1.40;67.90;;;1.10;50.82;96609.03;4936810;28;20540;-58
2022/03/15 02:31:47;;;;;;;34.97;20.27;;;1.40;68.10;;;1.06;51.50;96597.03;4936650;28;20469;-57
2022/03/15 02:34:15;;;;;;;35.37;19.10;;;1.40;68.10;;;1.03;51.51;96591.94;4927923;29;20481;-56
2022/03/15 02:36:42;;;;;;;29.40;17.50;;;1.30;68.20;;;0.99;51.34;96596.38;4934614;28;20973;-57
2022/03/15 02:39:11;;;;;;;32.47;15.70;;;1.30;68.20;;;0.97;52.30;96608.50;4932274;29;20829;-57
2022/03/15 02:41:38;;;;;;;32.27;16.60;;;1.30;68.20;;;0.96;51.78;96617.16;4940117;29;20449;-57
2022/03/15 02:44:06;;;;;;;31.03;15.50;;;1.20;68.10;;;0.97;51.99;96616.25;4930108;29;20476;-58
2022/03/15 02:46:34;;;;;;;30.73;15.10;;;1.30;68.50;;;0.98;51.54;96624.91;4934965;29;20539;-57
2022/03/15 02:49:02;;;;;;;28.50;17.80;;;1.30;68.80;;;0.96;51.82;96627.53;4941055;29;20496;-57
2022/03/15 02:51:30;;;;;;;36.20;18.80;;;1.30;68.20;;;0.96;52.30;96624.94;4939099;28;20464;-57
2022/03/15 02:53:58;;;;;;;35.80;18.53;;;1.30;68.90;;;0.98;51.57;96633.50;4941747;29;20531;-56
2022/03/15 02:56:27;;;;;;;35.87;18.80;;;1.30;69.10;;;0.99;51.64;96627.47;4938587;29;20457;-55
2022/03/15 02:58:54;;;;;;;43.30;22.50;;;1.30;68.80;;;0.97;52.12;96613.66;4939460;29;20483;-57
2022/03/15 03:01:22;;;;;;;41.93;21.00;;;1.30;68.90;;;0.96;51.89;96622.34;4941728;29;20835;-58
2022/03/15 03:03:50;;;;;;;41.13;21.37;;;1.30;68.80;;;0.96;51.81;96606.81;4940901;28;20483;-56
2022/03/15 03:06:18;;;;;;;56.20;21.57;;;1.30;68.30;;;0.96;51.68;96606.81;4935925;29;20464;-57
2022/03/15 03:08:45;;;;;;;47.37;21.20;;;1.30;68.60;;;0.97;51.39;96610.22;4931565;29;20492;-57
2022/03/15 03:11:12;;;;;;;45.27;21.10;;;1.30;68.80;;;0.97;51.85;96613.66;4943366;29;20456;-57
2022/03/15 03:13:42;;;;;;;43.80;20.73;;;1.30;68.30;;;0.99;51.48;96617.09;4938444;28;20484;-57
2022/03/15 03:16:12;;;;;;;31.53;18.90;;;1.30;68.20;;;1.00;51.37;96604.97;4931471;29;20883;-56
2022/03/15 03:18:39;;;;;;;28.60;16.70;;;1.30;68.20;;;0.99;51.54;96596.38;4934867;29;20664;-57
2022/03/15 03:21:06;;;;;;;35.53;18.10;;;1.30;68.20;;;0.98;50.64;96593.81;4945162;29;20449;-57
2022/03/15 03:23:35;;;;;;;36.57;15.60;;;1.30;68.10;;;0.98;51.97;96599.84;4944113;28;20496;-57
2022/03/15 03:26:02;;;;;;;23.87;13.20;;;1.30;68.20;;;0.97;50.97;96592.94;4934065;28;20535;-57
2022/03/15 03:28:36;;;;;;;22.50;11.10;;;1.30;68.10;;;0.97;51.68;96592.94;4937334;29;20508;-57
2022/03/15 03:31:05;;;;;;;20.00;10.20;;;1.20;68.10;;;0.94;51.26;96599.94;4934888;29;20479;-56
2022/03/15 03:33:32;;;;;;;19.40;10.30;;;1.30;68.20;;;0.88;51.47;96594.03;4938843;29;20488;-57
2022/03/15 03:36:00;;;;;;;21.40;10.53;;;1.20;67.50;;;0.87;50.98;96597.50;4940488;28;20547;-57
2022/03/15 03:38:27;;;;;;;19.13;10.73;;;1.20;67.40;;;0.86;51.06;96594.97;4935749;29;20802;-57
2022/03/15 03:40:55;;;;;;;25.10;12.03;;;1.20;67.50;;;0.85;50.78;96601.88;4929479;29;20458;-57
2022/03/15 03:43:22;;;;;;;29.07;11.57;;;1.20;68.00;;;0.85;51.75;96604.47;4943401;28;20473;-57
2022/03/15 03:45:49;;;;;;;26.50;12.03;;;1.10;68.00;;;0.84;50.89;96597.59;4937140;28;20538;-57
2022/03/15 03:48:19;;;;;;;22.73;10.97;;;1.20;67.80;;;0.83;51.55;96606.25;4934621;29;20499;-55
2022/03/15 03:50:46;;;;;;;28.10;11.60;;;1.10;68.00;;;0.83;51.22;96614.00;4932197;29;20500;-58
2022/03/15 03:53:14;;;;;;;24.40;12.00;;;1.10;68.00;;;0.85;51.07;96619.16;4934897;29;20473;-57
2022/03/15 03:55:41;;;;;;;25.00;12.57;;;1.10;68.00;;;0.83;51.91;96626.97;4944198;28;20454;-57
2022/03/15 03:58:09;;;;;;;29.70;13.47;;;1.10;68.00;;;0.83;51.48;96621.78;4933603;28;21033;-56
2022/03/15 04:00:36;;;;;;;28.77;14.40;;;1.20;68.10;;;0.81;51.82;96623.56;4933315;29;20472;-57
2022/03/15 04:03:04;;;;;;;36.60;15.00;;;1.10;68.40;;;0.77;51.98;96631.44;4939597;28;20476;-58
2022/03/15 04:05:35;;;;;;;33.50;14.73;;;1.10;68.30;;;0.74;52.26;96637.53;4942835;28;20448;-57
2022/03/15 04:08:02;;;;;;;26.57;14.70;;;1.10;68.70;;;0.70;51.64;96634.19;4929143;29;20493;-58
2022/03/15 04:10:31;;;;;;;28.30;14.67;;;1.00;68.70;;;0.68;51.23;96643.72;4935588;29;20869;-57
2022/03/15 04:12:58;;;;;;;36.37;14.30;;;1.00;68.60;;;0.65;51.76;96643.81;4942232;29;21064;-57
2022/03/15 04:15:25;;;;;;;28.40;14.80;;;1.00;69.10;;;0.63;51.75;96642.97;4936742;29;20461;-58
2022/03/15 04:17:52;;;;;;;30.87;14.63;;;1.00;69.40;;;0.61;51.71;96652.50;4932509;28;20484;-57
2022/03/15 04:20:20;;;;;;;31.20;14.63;;;0.90;69.20;;;0.59;52.27;96651.72;4935413;29;20460;-57
2022/03/15 04:22:48;;;;;;;29.73;15.50;;;0.90;69.80;;;0.54;52.64;96648.34;4938967;28;20476;-57
2022/03/15 04:25:16;;;;;;;34.83;16.07;;;0.90;70.00;;;0.54;51.99;96656.13;4940054;28;20488;-56
2022/03/15 04:27:43;;;;;;;28.57;16.27;;;0.90;70.10;;;0.51;52.66;96661.38;4937037;29;21245;-58
2022/03/15 04:30:12;;;;;;;37.97;16.27;;;0.80;70.10;;;0.49;52.75;96655.38;4929833;29;20485;-57
2022/03/15 04:32:39;;;;;;;33.20;18.00;;;0.80;70.60;;;0.44;52.91;96657.22;4938568;29;20590;-57
2022/03/15 04:35:08;;;;;;;34.57;15.77;;;0.80;70.80;;;0.44;52.29;96660.66;4935715;29;20456;-58
2022/03/15 04:37:35;;;;;;;31.50;15.80;;;0.70;70.40;;;0.44;52.50;96659.81;4933878;28;20497;-57
2022/03/15 04:40:07;;;;;;;33.30;15.47;;;0.80;70.40;;;0.45;52.82;96661.50;4930672;28;20467;-57
2022/03/15 04:42:34;;;;;;;31.73;16.60;;;0.70;70.60;;;0.48;52.90;96653.66;4933667;29;20481;-57
2022/03/15 04:45:01;;;;;;;30.13;15.30;;;0.80;70.60;;;0.49;52.88;96647.63;4937581;29;20558;-57
2022/03/15 04:47:29;;;;;;;34.83;17.20;;;0.80;70.90;;;0.48;52.33;96649.38;4943396;28;20997;-57
2022/03/15 04:49:57;;;;;;;44.07;17.17;;;0.80;71.30;;;0.47;52.33;96645.06;4930348;29;20494;-56
2022/03/15 04:52:24;;;;;;;29.13;15.53;;;0.80;71.60;;;0.47;53.40;96650.25;4935027;29;20489;-56
2022/03/15 04:54:51;;;;;;;25.97;14.47;;;0.80;71.50;;;0.45;52.64;96651.16;4942799;29;20456;-57
2022/03/15 04:57:20;;;;;;;27.70;14.33;;;0.80;71.10;;;0.43;52.85;96645.16;4943928;29;20497;-56
2022/03/15 04:59:47;;;;;;;24.53;15.17;;;0.80;71.50;;;0.42;52.82;96646.03;4928483;28;20462;-57
2022/03/15 05:02:15;;;;;;;30.03;15.80;;;0.80;71.50;;;0.42;53.19;96646.03;4926939;29;20454;-56
2022/03/15 05:04:42;;;;;;;29.47;15.37;;;0.70;71.30;;;0.44;52.52;96652.06;4934292;29;20528;-57
2022/03/15 05:07:09;;;;;;;28.27;14.60;;;0.80;71.30;;;0.49;53.34;96653.63;4936293;29;21005;-58
2022/03/15 05:11:05;;;;;;;35.87;16.40;;;0.80;71.90;;;0.55;52.53;96651.81;4928967;28;20571;-57
2022/03/15 05:12:25;;;;;;;30.70;15.07;;;0.80;71.60;;;0.61;52.71;96664.63;4935233;29;20475;-58
2022/03/15 05:14:53;;;;;;;26.40;15.77;;;0.90;71.40;;;0.68;52.85;96664.44;4929485;29;20461;-57
2022/03/15 05:17:20;;;;;;;27.97;16.60;;;1.00;71.10;;;0.70;51.79;96654.91;4939596;29;20834;-56
2022/03/15 05:19:48;;;;;;;27.77;15.30;;;1.00;71.00;;;0.74;51.99;96657.41;4933250;28;20471;-58
2022/03/15 05:22:15;;;;;;;38.23;17.00;;;1.00;70.80;;;0.82;52.40;96660.66;4926002;29;20459;-57
2022/03/15 05:24:42;;;;;;;36.57;17.17;;;1.10;71.10;;;0.97;52.27;96660.28;4932027;29;20458;-57
2022/03/15 05:27:10;;;;;;;30.33;15.80;;;1.20;70.90;;;1.05;51.47;96658.41;4927145;29;21037;-58
2022/03/15 05:29:39;;;;;;;25.50;15.87;;;1.30;70.00;;;1.13;52.03;96654.75;4941437;28;20871;-56
2022/03/15 05:32:07;;;;;;;32.70;15.70;;;1.40;69.90;;;1.17;51.47;96656.38;4926344;29;20453;-56
2022/03/15 05:34:34;;;;;;;35.43;16.33;;;1.40;69.20;;;1.19;51.25;96660.66;4933594;29;20849;-57
2022/03/15 05:37:02;;;;;;;31.47;16.77;;;1.40;68.30;;;1.21;50.78;96663.19;4934987;29;20460;-59
2022/03/15 05:39:30;;;;;;;31.77;18.77;;;1.50;68.40;;;1.22;51.17;96663.16;4929051;28;20522;-57
2022/03/15 05:41:57;;;;;;;32.10;17.20;;;1.50;68.40;;;1.24;51.81;96663.13;4931469;29;20925;-59
2022/03/15 05:44:26;;;;;;;38.43;17.67;;;1.50;68.50;;;1.25;51.21;96655.31;4935282;29;20483;-58
2022/03/15 05:46:54;;;;;;;38.17;18.40;;;1.50;68.60;;;1.28;51.54;96662.13;4938549;29;20543;-57
2022/03/15 05:49:22;;;;;;;31.57;15.87;;;1.50;68.40;;;1.31;51.31;96664.66;4942713;28;20551;-57
2022/03/15 05:51:49;;;;;;;22.50;14.30;;;1.60;69.20;;;1.34;51.25;96658.53;4934250;29;20469;-60
2022/03/15 05:54:16;;;;;;;30.13;18.40;;;1.60;68.50;;;1.40;51.11;96667.00;4935230;28;20472;-59
2022/03/15 05:56:45;;;;;;;29.27;18.03;;;1.70;68.60;;;1.46;50.84;96659.94;4935723;29;20460;-58
2022/03/15 05:59:13;;;;;;;40.50;18.17;;;1.70;68.70;;;1.53;51.77;96664.94;4936529;29;20476;-59
2022/03/15 06:01:40;;;;;;;30.67;16.43;;;1.80;69.00;;;1.62;52.25;96658.66;4934394;28;20536;-57
2022/03/15 06:04:10;;;;;;;39.17;18.87;;;1.90;69.90;;;1.75;51.47;96664.38;4932568;29;20484;-59
2022/03/15 06:06:37;;;;;;;27.97;15.67;;;1.90;69.00;;;1.89;50.25;96666.56;4935568;29;20879;-59
2022/03/15 06:09:05;;;;;;;28.33;15.60;;;2.10;68.40;;;2.05;51.03;96674.81;4931862;28;20496;-61
2022/03/15 06:11:34;;;;;;;27.83;16.70;;;2.20;67.80;;;2.23;50.24;96676.00;4938373;29;20508;-59
2022/03/15 06:14:02;;;;;;;23.47;16.47;;;2.40;67.90;;;2.48;49.79;96678.75;4931141;29;20480;-59
2022/03/15 06:16:29;;;;;;;34.27;18.50;;;2.60;67.90;;;2.73;49.98;96678.88;4935601;29;20456;-58
2022/03/15 06:18:56;;;;;;;30.10;17.13;;;2.80;67.50;;;2.97;49.95;96673.78;4939038;29;20480;-58
2022/03/15 06:21:25;;;;;;;54.70;25.20;;;3.00;67.50;;;3.21;49.22;96670.41;4938778;28;20499;-57
2022/03/15 06:23:52;;;;;;;56.47;25.17;;;3.30;66.80;;;3.47;49.34;96666.09;4930852;29;20528;-57
2022/03/15 06:26:20;;;;;;;68.03;29.17;;;3.50;65.90;;;3.74;48.64;96672.06;4933958;29;20821;-59
2022/03/15 06:28:47;;;;;;;85.90;30.30;;;3.80;65.30;;;4.04;48.03;96673.66;4939609;28;20881;-59
2022/03/15 06:31:15;;;;;;;65.50;29.17;;;4.00;64.40;;;4.34;47.95;96670.81;4939987;28;20520;-56
2022/03/15 06:33:43;;;;;;;60.03;28.23;;;4.30;63.80;;;4.63;47.63;96662.78;4931338;29;20488;-59
2022/03/15 06:36:11;;;;;;;64.10;29.67;;;4.60;63.10;;;4.96;46.83;96667.56;4932466;29;20461;-57
2022/03/15 06:38:41;;;;;;;66.13;29.90;;;4.90;62.20;;;5.32;46.58;96672.19;4933842;29;20500;-59
2022/03/15 06:41:09;;;;;;;83.13;33.00;;;5.30;61.40;;;5.67;45.95;96672.50;4936178;29;20534;-59
2022/03/15 06:43:36;;;;;;;77.40;33.43;;;5.60;60.20;;;5.99;45.24;96672.91;4936114;28;20480;-59
2022/03/15 06:46:03;;;;;;;66.80;32.70;;;5.90;59.40;;;6.30;44.43;96681.16;4932331;28;20459;-57
2022/03/15 06:48:31;;;;;;;66.23;34.27;;;6.20;57.50;;;6.55;44.23;96675.66;4936564;28;20476;-59
2022/03/15 06:50:58;;;;;;;74.03;35.60;;;6.50;57.40;;;6.84;44.37;96669.06;4934625;28;20465;-57
2022/03/15 06:53:25;;;;;;;74.07;34.57;;;6.80;57.30;;;7.17;44.16;96674.47;4937688;29;20528;-58
2022/03/15 06:55:54;;;;;;;76.53;32.03;;;7.10;56.90;;;7.54;43.23;96667.44;4932830;29;20476;-56
2022/03/15 06:58:21;;;;;;;64.83;33.50;;;7.40;55.90;;;7.90;42.48;96669.09;4934711;29;20471;-56
2022/03/15 07:00:49;;;;;;;65.63;32.10;;;7.80;55.40;;;8.25;42.07;96674.25;4933350;29;20472;-58
2022/03/15 07:03:16;;;;;;;97.00;36.27;;;8.10;54.60;;;8.57;41.20;96671.75;4937999;28;20520;-57
2022/03/15 07:05:44;;;;;;;65.20;35.03;;;8.50;53.10;;;8.91;41.49;96667.28;4931848;29;20468;-59
2022/03/15 07:08:12;;;;;;;75.47;35.37;;;8.80;53.10;;;9.24;40.97;96674.19;4930545;29;20472;-57
2022/03/15 07:10:39;;;;;;;78.43;33.57;;;9.10;51.90;;;9.60;40.50;96680.88;4935685;29;21051;-56
2022/03/15 07:13:07;;;;;;;83.50;38.00;;;9.50;51.70;;;9.95;39.94;96677.97;4938787;29;20477;-57
2022/03/15 07:15:35;;;;;;;91.53;36.33;;;9.80;51.60;;;10.29;39.09;96672.47;4926860;29;20465;-57
2022/03/15 07:18:02;;;;;;;78.10;38.83;;;10.10;49.50;;;10.63;39.21;96676.53;4932510;29;20844;-56
2022/03/15 07:20:29;;;;;;;66.67;34.90;;;10.50;49.10;;;10.93;39.25;96671.13;4934971;29;20852;-60
2022/03/15 07:22:57;;;;;;;66.70;36.47;;;10.80;47.90;;;11.32;38.32;96667.81;4934542;29;21013;-57
2022/03/15 07:25:24;;;;;;;73.40;36.23;;;11.10;48.10;;;11.70;35.29;96662.66;4933607;28;20939;-57
2022/03/15 07:27:51;;;;;;;69.70;32.97;;;11.40;44.50;;;12.04;36.85;96660.41;4930281;29;20993;-60
2022/03/15 07:30:20;;;;;;;58.73;30.63;;;11.80;46.30;;;12.48;37.78;96664.41;4936809;28;20895;-59
2022/03/15 07:32:47;;;;;;;82.43;34.20;;;12.20;47.20;;;12.91;34.86;96655.25;4934225;28;20547;-56
2022/03/15 07:35:15;;;;;;;63.87;32.27;;;12.60;43.20;;;13.19;35.15;96667.31;4944448;28;20577;-57
2022/03/15 07:37:50;;;;;;;56.17;29.33;;;12.90;42.90;;;13.53;35.62;96656.09;4932123;29;21007;-59
2022/03/15 07:40:17;;;;;;;41.07;26.17;;;13.20;45.10;;;13.95;34.73;96667.88;4937848;29;20972;-60
2022/03/15 07:42:45;;;;;;;42.23;26.93;;;13.60;43.40;;;14.32;33.65;96659.78;4941526;28;20889;-59
2022/03/15 07:45:12;;;;;;;61.87;26.87;;;14.00;41.70;;;14.67;34.02;96656.22;4943351;28;20445;-59
2022/03/15 07:47:41;;;;;;;39.50;24.23;;;14.50;42.20;;;15.02;30.92;96662.31;4934729;29;20484;-60
2022/03/15 07:50:09;;;;;;;43.10;25.70;;;14.90;39.40;;;15.27;29.88;96666.47;4934993;28;20500;-59
2022/03/15 07:52:37;;;;;;;41.57;24.50;;;15.20;37.80;;;15.44;32.72;96661.63;4936367;29;20498;-59
2022/03/15 07:55:05;;;;;;;43.30;21.87;;;15.50;39.90;;;15.73;32.69;96661.88;4945879;29;20985;-59
2022/03/15 07:57:32;;;;;;;35.43;20.70;;;15.80;40.10;;;16.04;31.66;96654.03;4937191;29;20481;-57
2022/03/15 08:00:00;;;;;;;43.90;21.00;;;16.10;38.50;;;16.27;31.35;96665.34;4934717;28;20456;-57
2022/03/15 08:02:27;;;;;;;42.80;23.80;;;16.40;37.90;;;16.52;30.79;96649.97;4936686;29;20460;-59
2022/03/15 08:04:58;;;;;;;33.90;21.10;;;16.70;37.20;;;16.79;31.10;96649.38;4942849;28;20465;-57
2022/03/15 08:07:25;;;;;;;39.43;22.83;;;16.90;37.90;;;17.11;30.17;96646.56;4935566;28;20933;-57
2022/03/15 08:09:54;;;;;;;34.60;22.27;;;17.20;37.40;;;17.33;26.23;96636.66;4937185;28;20514;-59
2022/03/15 08:12:21;;;;;;;34.30;22.73;;;17.40;32.90;;;17.31;28.85;96638.63;4938636;29;20941;-59
2022/03/15 08:14:48;;;;;;;39.33;22.63;;;17.50;35.00;;;17.42;29.18;96635.81;4944661;29;20500;-57
2022/03/15 08:17:16;;;;;;;42.57;23.07;;;17.50;35.40;;;17.66;28.05;96637.22;4936040;28;20465;-62
2022/03/15 08:19:43;;;;;;;47.23;25.73;;;17.70;35.40;;;17.86;28.52;96635.41;4935715;29;20905;-60
2022/03/15 08:22:12;;;;;;;37.03;25.13;;;18.00;35.00;;;17.95;28.32;96631.09;4939174;29;20495;-56
2022/03/15 08:24:39;;;;;;;41.90;24.73;;;18.10;34.80;;;18.09;26.23;96634.16;4937520;28;20461;-57
2022/03/15 08:27:07;;;;;;;38.53;23.93;;;18.20;32.30;;;18.07;28.69;96632.59;4941256;28;20449;-56
2022/03/15 08:29:34;;;;;;;35.00;24.50;;;18.20;34.50;;;18.15;25.69;96627.41;4933838;29;20497;-57
2022/03/15 08:32:02;;;;;;;37.73;24.57;;;18.30;32.20;;;18.17;27.41;96622.78;4936564;29;20547;-57
2022/03/15 08:34:29;;;;;;;42.37;25.20;;;18.30;32.70;;;18.19;27.80;96634.13;4941411;29;20464;-60
2022/03/15 08:36:57;;;;;;;55.23;25.23;;;18.30;33.50;;;18.07;26.74;96632.59;4942312;28;20454;-62
2022/03/15 08:39:26;;;;;;;45.03;23.00;;;18.20;32.20;;;17.86;27.35;96633.59;4932395;28;20524;-58
2022/03/15 08:41:53;;;;;;;48.67;26.23;;;18.00;32.60;;;17.80;27.04;96625.31;4936151;29;20440;-59
2022/03/15 08:44:21;;;;;;;60.17;27.00;;;17.90;32.30;;;17.82;26.84;96618.03;4940168;28;20477;-59
2022/03/15 08:46:48;;;;;;;52.00;27.87;;;17.80;32.80;;;17.83;26.75;96617.03;4942800;29;20452;-60
2022/03/15 08:49:16;;;;;;;53.30;30.63;;;17.80;32.20;;;17.61;26.07;96613.69;4936852;28;20477;-60
2022/03/15 08:51:43;;;;;;;64.70;30.60;;;17.60;31.40;;;17.48;27.02;96613.97;4933466;29;20536;-59
2022/03/15 08:54:10;;;;;;;58.47;28.10;;;17.40;32.10;;;17.50;26.54;96614.69;4936930;29;20476;-60
2022/03/15 08:56:41;;;;;;;73.50;29.80;;;17.40;31.80;;;17.60;26.80;96608.50;4941680;29;21024;-57
2022/03/15 08:59:09;;;;;;;59.53;29.07;;;17.40;32.40;;;17.64;24.82;96607.25;4933355;28;20483;-59
2022/03/15 09:01:36;;;;;;;54.17;27.60;;;17.40;30.90;;;17.42;26.51;96606.56;4935568;29;20459;-60
2022/03/15 09:04:04;;;;;;;60.33;28.27;;;17.30;31.60;;;17.34;26.35;96595.78;4937763;28;20477;-62
2022/03/15 09:06:31;;;;;;;46.00;26.77;;;17.20;31.80;;;17.34;26.77;96593.97;4940950;28;20457;-57
2022/03/15 09:09:00;;;;;;;53.93;28.17;;;17.10;32.20;;;17.49;26.56;96591.72;4934828;28;20500;-57
2022/03/15 09:11:28;;;;;;;52.63;27.33;;;17.20;32.60;;;17.70;26.54;96586.25;4931716;29;20507;-58
2022/03/15 09:13:57;;;;;;;42.93;27.60;;;17.40;32.30;;;17.73;25.97;96590.44;4937478;29;20475;-57
2022/03/15 09:16:24;;;;;;;50.07;28.03;;;17.40;31.50;;;17.78;26.12;96580.22;4941972;29;20938;-59
2022/03/15 09:18:51;;;;;;;54.70;26.23;;;17.50;32.00;;;17.99;25.96;96584.56;4939130;29;20560;-60
2022/03/15 09:21:19;;;;;;;62.80;27.53;;;17.70;31.90;;;18.20;25.32;96581.69;4932613;28;20884;-60
2022/03/15 09:23:46;;;;;;;49.73;28.43;;;17.90;31.20;;;18.30;25.88;96579.00;4938312;29;20477;-57
2022/03/15 09:26:14;;;;;;;51.70;29.20;;;18.00;31.20;;;18.39;26.08;96578.97;4936473;28;20458;-57
2022/03/15 09:28:44;;;;;;;49.43;25.27;;;18.10;31.80;;;18.57;25.56;96572.84;4940403;28;20473;-57
2022/03/15 09:31:13;;;;;;;48.13;28.23;;;18.30;31.10;;;18.75;25.71;96570.25;4926683;29;20497;-57
2022/03/15 09:33:43;;;;;;;52.43;30.80;;;18.50;30.90;;;18.79;25.48;96575.13;4933841;29;20468;-57
2022/03/15 09:36:10;;;;;;;63.83;28.10;;;18.60;31.00;;;18.86;25.24;96566.56;4937544;29;20993;-60
2022/03/15 09:38:38;;;;;;;51.37;27.80;;;18.60;30.90;;;18.88;25.53;96561.91;4941413;28;20542;-60
2022/03/15 09:41:05;;;;;;;52.60;30.20;;;18.70;30.70;;;18.92;25.20;96560.66;4936167;28;20552;-57
2022/03/15 09:43:37;;;;;;;47.47;28.40;;;18.70;31.10;;;18.97;25.03;96563.69;4932937;29;20507;-59
2022/03/15 09:46:05;;;;;;;63.97;30.47;;;18.70;30.70;;;18.98;24.99;96560.88;4934175;29;20961;-59
2022/03/15 09:48:35;;;;;;;44.53;27.17;;;18.80;30.00;;;18.97;25.03;96556.50;4940279;29;20483;-58
2022/03/15 09:51:04;;;;;;;50.00;25.03;;;18.80;30.50;;;18.88;24.84;96548.59;4935818;28;20515;-60
2022/03/15 09:53:32;;;;;;;42.07;24.27;;;18.70;30.10;;;18.79;24.88;96548.47;4933825;29;20484;-57
2022/03/15 09:56:00;;;;;;;39.13;23.50;;;18.60;30.00;;;18.70;24.64;96544.03;4934504;29;20453;-58
2022/03/15 09:58:27;;;;;;;45.97;22.67;;;18.60;30.00;;;18.61;24.87;96537.75;4941146;28;20476;-60
2022/03/15 10:00:55;;;;;;;39.23;22.27;;;18.50;29.60;;;18.52;24.98;96537.81;4939449;29;21012;-60
2022/03/15 10:03:23;;;;;;;51.57;23.20;;;18.40;30.00;;;18.41;24.63;96530.88;4928141;29;20484;-57
2022/03/15 10:05:52;;;;;;;40.37;22.80;;;18.30;29.60;;;18.41;24.65;96525.53;4930613;29;20461;-55
2022/03/15 10:08:20;;;;;;;37.80;22.57;;;18.20;30.00;;;18.48;25.07;96526.59;4929984;29;20477;-57
2022/03/15 10:10:50;;;;;;;37.97;22.13;;;18.20;30.60;;;18.66;24.22;96525.81;4943342;28;20493;-60
2022/03/15 10:13:18;;;;;;;42.40;21.97;;;18.30;30.00;;;18.82;24.59;96518.00;4934068;28;20501;-60
2022/03/15 10:15:55;;;;;;;39.00;20.90;;;18.50;30.10;;;18.97;24.55;96513.84;4934149;29;20457;-62
2022/03/15 10:18:24;;;;;;;31.47;18.53;;;18.60;30.30;;;19.09;24.50;96513.66;4936075;29;20472;-60